sensor_id;sensor_type;location;lat;lon;timestamp;temperature;humidity
13721;DHT22;6932;51.438;5.470;2023-10-13T00:01:57;21.50;99.90
13721;DHT22;6932;51.438;5.470;2023-10-13T00:04:29;21.50;99.90
13721;DHT22;6932;51.438;5.470;2023-10-13T00:06:58;21.50;99.90
13721;DHT22;6932;51.438;5.470;2023-10-13T00:09:25;21.50;99.90
13721;DHT22;6932;51.438;5.470;2023-10-13T00:11:58;21.50;99.90
13721;DHT22;6932;51.438;5.470;2023-10-13T00:14:25;21.50;99.90
13721;DHT22;6932;51.438;5.470;2023-10-13T00:17:04;21.50;99.90
13721;DHT22;6932;51.438;5.470;2023-10-13T00:19:35;21.50;99.90
13721;DHT22;6932;51.438;5.470;2023-10-13T00:22:13;21.50;99.90
13721;DHT22;6932;51.438;5.470;2023-10-13T00:24:42;21.50;99.90
13721;DHT22;6932;51.438;5.470;2023-10-13T00:27:15;21.50;99.90
13721;DHT22;6932;51.438;5.470;2023-10-13T00:30:06;21.50;99.90
13721;DHT22;6932;51.438;5.470;2023-10-13T00:32:57;21.50;99.90
13721;DHT22;6932;51.438;5.470;2023-10-13T00:35:24;21.50;99.90
13721;DHT22;6932;51.438;5.470;2023-10-13T00:38:05;21.50;99.90
13721;DHT22;6932;51.438;5.470;2023-10-13T00:40:44;21.50;99.90
13721;DHT22;6932;51.438;5.470;2023-10-13T00:43:19;21.50;99.90
13721;DHT22;6932;51.438;5.470;2023-10-13T00:46:00;21.50;99.90
13721;DHT22;6932;51.438;5.470;2023-10-13T00:48:37;21.50;99.90
13721;DHT22;6932;51.438;5.470;2023-10-13T00:51:10;21.50;99.90
13721;DHT22;6932;51.438;5.470;2023-10-13T00:53:44;21.50;99.90
13721;DHT22;6932;51.438;5.470;2023-10-13T00:56:14;21.50;99.90
13721;DHT22;6932;51.438;5.470;2023-10-13T00:58:54;21.50;99.90
13721;DHT22;6932;51.438;5.470;2023-10-13T01:01:23;21.50;99.90
13721;DHT22;6932;51.438;5.470;2023-10-13T01:03:55;21.50;99.90
13721;DHT22;6932;51.438;5.470;2023-10-13T01:06:25;21.50;99.90
13721;DHT22;6932;51.438;5.470;2023-10-13T01:09:01;21.50;99.90
13721;DHT22;6932;51.438;5.470;2023-10-13T01:11:48;21.50;99.90
13721;DHT22;6932;51.438;5.470;2023-10-13T01:14:18;21.50;99.90
13721;DHT22;6932;51.438;5.470;2023-10-13T01:16:46;21.40;99.90
13721;DHT22;6932;51.438;5.470;2023-10-13T01:19:14;21.40;99.90
13721;DHT22;6932;51.438;5.470;2023-10-13T01:21:44;21.50;99.90
13721;DHT22;6932;51.438;5.470;2023-10-13T01:24:10;21.50;99.90
13721;DHT22;6932;51.438;5.470;2023-10-13T01:26:41;21.40;99.90
13721;DHT22;6932;51.438;5.470;2023-10-13T01:29:08;21.50;99.90
13721;DHT22;6932;51.438;5.470;2023-10-13T01:31:44;21.40;99.90
13721;DHT22;6932;51.438;5.470;2023-10-13T01:34:15;21.40;99.90
13721;DHT22;6932;51.438;5.470;2023-10-13T01:36:48;21.40;99.90
13721;DHT22;6932;51.438;5.470;2023-10-13T01:39:19;21.40;99.90
13721;DHT22;6932;51.438;5.470;2023-10-13T01:41:47;21.40;99.90
13721;DHT22;6932;51.438;5.470;2023-10-13T01:44:29;21.40;99.90
13721;DHT22;6932;51.438;5.470;2023-10-13T01:46:59;21.40;99.90
13721;DHT22;6932;51.438;5.470;2023-10-13T01:49:33;21.40;99.90
13721;DHT22;6932;51.438;5.470;2023-10-13T01:52:08;21.40;99.90
13721;DHT22;6932;51.438;5.470;2023-10-13T01:54:38;21.40;99.90
13721;DHT22;6932;51.438;5.470;2023-10-13T01:57:07;21.40;99.90
13721;DHT22;6932;51.438;5.470;2023-10-13T01:59:33;21.40;99.90
13721;DHT22;6932;51.438;5.470;2023-10-13T02:02:07;21.40;99.90
13721;DHT22;6932;51.438;5.470;2023-10-13T02:04:33;21.40;99.90
13721;DHT22;6932;51.438;5.470;2023-10-13T02:06:59;21.40;99.90
13721;DHT22;6932;51.438;5.470;2023-10-13T02:09:24;21.40;99.90
13721;DHT22;6932;51.438;5.470;2023-10-13T02:11:54;21.40;99.90
13721;DHT22;6932;51.438;5.470;2023-10-13T02:14:21;21.40;99.90
13721;DHT22;6932;51.438;5.470;2023-10-13T02:16:51;21.40;99.90
13721;DHT22;6932;51.438;5.470;2023-10-13T02:19:37;21.30;99.90
13721;DHT22;6932;51.438;5.470;2023-10-13T02:22:05;21.40;99.90
13721;DHT22;6932;51.438;5.470;2023-10-13T02:24:35;21.40;99.90
13721;DHT22;6932;51.438;5.470;2023-10-13T02:27:08;21.40;99.90
13721;DHT22;6932;51.438;5.470;2023-10-13T02:29:40;21.40;99.90
13721;DHT22;6932;51.438;5.470;2023-10-13T02:32:07;21.40;99.90
13721;DHT22;6932;51.438;5.470;2023-10-13T02:34:44;21.40;99.90
13721;DHT22;6932;51.438;5.470;2023-10-13T02:37:11;21.40;99.90
13721;DHT22;6932;51.438;5.470;2023-10-13T02:39:39;21.40;99.90
13721;DHT22;6932;51.438;5.470;2023-10-13T02:42:08;21.40;99.90
13721;DHT22;6932;51.438;5.470;2023-10-13T02:44:51;21.40;99.90
13721;DHT22;6932;51.438;5.470;2023-10-13T02:47:21;21.40;99.90
13721;DHT22;6932;51.438;5.470;2023-10-13T02:49:49;21.40;99.90
13721;DHT22;6932;51.438;5.470;2023-10-13T02:52:15;21.40;99.90
13721;DHT22;6932;51.438;5.470;2023-10-13T02:54:41;21.40;99.90
13721;DHT22;6932;51.438;5.470;2023-10-13T02:57:16;21.40;99.90
13721;DHT22;6932;51.438;5.470;2023-10-13T02:59:43;21.40;99.90
13721;DHT22;6932;51.438;5.470;2023-10-13T03:02:16;21.40;99.90
13721;DHT22;6932;51.438;5.470;2023-10-13T03:04:46;21.40;99.90
13721;DHT22;6932;51.438;5.470;2023-10-13T03:07:13;21.40;99.90
13721;DHT22;6932;51.438;5.470;2023-10-13T03:09:51;21.40;99.90
13721;DHT22;6932;51.438;5.470;2023-10-13T03:12:18;21.40;99.90
13721;DHT22;6932;51.438;5.470;2023-10-13T03:14:44;21.40;99.90
13721;DHT22;6932;51.438;5.470;2023-10-13T03:17:13;21.40;99.90
13721;DHT22;6932;51.438;5.470;2023-10-13T03:19:45;21.40;99.90
13721;DHT22;6932;51.438;5.470;2023-10-13T03:22:16;21.40;99.90
13721;DHT22;6932;51.438;5.470;2023-10-13T03:24:44;21.40;99.90
13721;DHT22;6932;51.438;5.470;2023-10-13T03:27:18;21.40;99.90
13721;DHT22;6932;51.438;5.470;2023-10-13T03:29:48;21.40;99.90
13721;DHT22;6932;51.438;5.470;2023-10-13T03:32:21;21.40;99.90
13721;DHT22;6932;51.438;5.470;2023-10-13T03:34:51;21.40;99.90
13721;DHT22;6932;51.438;5.470;2023-10-13T03:37:18;21.50;99.90
13721;DHT22;6932;51.438;5.470;2023-10-13T03:42:54;21.40;99.90
13721;DHT22;6932;51.438;5.470;2023-10-13T03:45:34;21.50;99.90
13721;DHT22;6932;51.438;5.470;2023-10-13T03:48:06;21.50;99.90
13721;DHT22;6932;51.438;5.470;2023-10-13T03:50:37;21.50;99.90
13721;DHT22;6932;51.438;5.470;2023-10-13T03:53:13;21.50;99.90
13721;DHT22;6932;51.438;5.470;2023-10-13T03:55:40;21.50;99.90
13721;DHT22;6932;51.438;5.470;2023-10-13T03:58:14;21.50;99.90
13721;DHT22;6932;51.438;5.470;2023-10-13T04:00:42;21.50;99.90
13721;DHT22;6932;51.438;5.470;2023-10-13T04:03:08;21.60;99.90
13721;DHT22;6932;51.438;5.470;2023-10-13T04:05:41;21.50;99.90
13721;DHT22;6932;51.438;5.470;2023-10-13T04:08:12;21.60;99.90
13721;DHT22;6932;51.438;5.470;2023-10-13T04:10:54;21.60;99.90
13721;DHT22;6932;51.438;5.470;2023-10-13T04:13:22;21.60;99.90
13721;DHT22;6932;51.438;5.470;2023-10-13T04:16:09;21.60;99.90
13721;DHT22;6932;51.438;5.470;2023-10-13T04:18:50;21.60;99.90
13721;DHT22;6932;51.438;5.470;2023-10-13T04:21:19;21.60;99.90
13721;DHT22;6932;51.438;5.470;2023-10-13T04:24:12;21.60;99.90
13721;DHT22;6932;51.438;5.470;2023-10-13T04:26:51;21.60;99.90
13721;DHT22;6932;51.438;5.470;2023-10-13T04:29:44;21.60;99.90
13721;DHT22;6932;51.438;5.470;2023-10-13T04:32:28;21.60;99.90
13721;DHT22;6932;51.438;5.470;2023-10-13T04:35:02;21.70;99.90
13721;DHT22;6932;51.438;5.470;2023-10-13T04:37:54;21.70;99.90
13721;DHT22;6932;51.438;5.470;2023-10-13T04:40:27;21.70;99.90
13721;DHT22;6932;51.438;5.470;2023-10-13T04:43:00;21.70;99.90
13721;DHT22;6932;51.438;5.470;2023-10-13T04:45:42;21.70;99.90
13721;DHT22;6932;51.438;5.470;2023-10-13T04:48:19;21.70;99.90
13721;DHT22;6932;51.438;5.470;2023-10-13T04:50:48;21.80;99.90
13721;DHT22;6932;51.438;5.470;2023-10-13T04:53:22;21.70;99.90
13721;DHT22;6932;51.438;5.470;2023-10-13T04:56:20;21.80;99.90
13721;DHT22;6932;51.438;5.470;2023-10-13T04:59:04;21.80;99.90
13721;DHT22;6932;51.438;5.470;2023-10-13T05:01:49;21.80;99.90
13721;DHT22;6932;51.438;5.470;2023-10-13T05:04:33;21.80;99.90
13721;DHT22;6932;51.438;5.470;2023-10-13T05:07:19;21.80;99.90
13721;DHT22;6932;51.438;5.470;2023-10-13T05:10:05;21.80;99.90
13721;DHT22;6932;51.438;5.470;2023-10-13T05:12:50;21.80;99.90
13721;DHT22;6932;51.438;5.470;2023-10-13T05:15:34;21.80;99.90
13721;DHT22;6932;51.438;5.470;2023-10-13T05:18:18;21.80;99.90
13721;DHT22;6932;51.438;5.470;2023-10-13T05:21:02;21.80;99.90
13721;DHT22;6932;51.438;5.470;2023-10-13T05:23:46;21.80;99.90
13721;DHT22;6932;51.438;5.470;2023-10-13T05:26:30;21.80;99.90
13721;DHT22;6932;51.438;5.470;2023-10-13T05:29:22;21.80;99.90
13721;DHT22;6932;51.438;5.470;2023-10-13T05:32:06;21.80;99.90
13721;DHT22;6932;51.438;5.470;2023-10-13T05:34:50;21.80;99.90
13721;DHT22;6932;51.438;5.470;2023-10-13T05:37:34;21.80;99.90
13721;DHT22;6932;51.438;5.470;2023-10-13T05:40:18;21.80;99.90
13721;DHT22;6932;51.438;5.470;2023-10-13T05:43:03;21.80;99.90
13721;DHT22;6932;51.438;5.470;2023-10-13T05:45:47;21.80;99.90
13721;DHT22;6932;51.438;5.470;2023-10-13T05:48:31;21.80;99.90
13721;DHT22;6932;51.438;5.470;2023-10-13T05:51:15;21.90;99.90
13721;DHT22;6932;51.438;5.470;2023-10-13T05:54:10;21.80;99.90
13721;DHT22;6932;51.438;5.470;2023-10-13T05:59:25;21.80;99.90
13721;DHT22;6932;51.438;5.470;2023-10-13T06:02:10;21.80;99.90
13721;DHT22;6932;51.438;5.470;2023-10-13T06:04:56;21.80;99.90
13721;DHT22;6932;51.438;5.470;2023-10-13T06:07:40;21.80;99.90
13721;DHT22;6932;51.438;5.470;2023-10-13T06:10:25;21.80;99.90
13721;DHT22;6932;51.438;5.470;2023-10-13T06:13:09;21.80;99.90
13721;DHT22;6932;51.438;5.470;2023-10-13T06:15:54;21.80;99.90
13721;DHT22;6932;51.438;5.470;2023-10-13T06:18:51;21.80;99.90
13721;DHT22;6932;51.438;5.470;2023-10-13T06:21:36;21.80;99.90
13721;DHT22;6932;51.438;5.470;2023-10-13T06:24:20;21.80;99.90
13721;DHT22;6932;51.438;5.470;2023-10-13T06:27:04;21.80;99.90
13721;DHT22;6932;51.438;5.470;2023-10-13T06:29:48;21.80;99.90
13721;DHT22;6932;51.438;5.470;2023-10-13T06:32:14;21.80;99.90
13721;DHT22;6932;51.438;5.470;2023-10-13T06:34:42;21.80;99.90
13721;DHT22;6932;51.438;5.470;2023-10-13T06:37:16;21.80;99.90
13721;DHT22;6932;51.438;5.470;2023-10-13T06:39:56;21.80;99.90
13721;DHT22;6932;51.438;5.470;2023-10-13T06:42:26;21.80;99.90
13721;DHT22;6932;51.438;5.470;2023-10-13T06:44:55;21.90;99.90
13721;DHT22;6932;51.438;5.470;2023-10-13T06:47:24;21.90;99.90
13721;DHT22;6932;51.438;5.470;2023-10-13T06:49:50;21.90;99.90
13721;DHT22;6932;51.438;5.470;2023-10-13T06:52:19;21.90;99.90
13721;DHT22;6932;51.438;5.470;2023-10-13T06:54:51;21.90;99.90
13721;DHT22;6932;51.438;5.470;2023-10-13T06:57:19;21.90;99.90
13721;DHT22;6932;51.438;5.470;2023-10-13T06:59:48;21.90;99.90
13721;DHT22;6932;51.438;5.470;2023-10-13T07:02:14;21.90;99.90
13721;DHT22;6932;51.438;5.470;2023-10-13T07:04:58;22.00;99.90
13721;DHT22;6932;51.438;5.470;2023-10-13T07:07:32;22.00;99.90
13721;DHT22;6932;51.438;5.470;2023-10-13T07:09:59;22.00;99.90
13721;DHT22;6932;51.438;5.470;2023-10-13T07:12:24;22.00;99.90
13721;DHT22;6932;51.438;5.470;2023-10-13T07:14:58;22.00;99.90
13721;DHT22;6932;51.438;5.470;2023-10-13T07:17:50;22.00;99.90
13721;DHT22;6932;51.438;5.470;2023-10-13T07:20:20;22.00;99.90
13721;DHT22;6932;51.438;5.470;2023-10-13T07:22:50;22.00;99.90
13721;DHT22;6932;51.438;5.470;2023-10-13T07:25:35;22.00;99.90
13721;DHT22;6932;51.438;5.470;2023-10-13T07:28:03;22.00;99.90
13721;DHT22;6932;51.438;5.470;2023-10-13T07:30:30;22.10;99.90
13721;DHT22;6932;51.438;5.470;2023-10-13T07:33:05;22.10;99.90
13721;DHT22;6932;51.438;5.470;2023-10-13T07:35:31;22.10;99.90
13721;DHT22;6932;51.438;5.470;2023-10-13T07:38:01;22.10;99.90
13721;DHT22;6932;51.438;5.470;2023-10-13T07:40:27;22.10;99.90
13721;DHT22;6932;51.438;5.470;2023-10-13T07:43:05;22.10;99.90
13721;DHT22;6932;51.438;5.470;2023-10-13T07:45:38;22.10;99.90
13721;DHT22;6932;51.438;5.470;2023-10-13T07:48:08;22.10;99.90
13721;DHT22;6932;51.438;5.470;2023-10-13T07:50:42;22.20;99.90
13721;DHT22;6932;51.438;5.470;2023-10-13T07:53:09;22.20;99.90
13721;DHT22;6932;51.438;5.470;2023-10-13T07:55:50;22.20;99.90
13721;DHT22;6932;51.438;5.470;2023-10-13T07:58:27;22.30;99.90
13721;DHT22;6932;51.438;5.470;2023-10-13T08:00:54;22.30;99.90
13721;DHT22;6932;51.438;5.470;2023-10-13T08:03:40;22.40;99.90
13721;DHT22;6932;51.438;5.470;2023-10-13T08:06:16;22.40;99.90
13721;DHT22;6932;51.438;5.470;2023-10-13T08:08:43;22.50;99.90
13721;DHT22;6932;51.438;5.470;2023-10-13T08:11:13;22.50;99.90
13721;DHT22;6932;51.438;5.470;2023-10-13T08:13:51;22.50;99.90
13721;DHT22;6932;51.438;5.470;2023-10-13T08:16:37;22.50;99.90
13721;DHT22;6932;51.438;5.470;2023-10-13T08:19:25;22.60;99.90
13721;DHT22;6932;51.438;5.470;2023-10-13T08:21:57;22.60;99.90
13721;DHT22;6932;51.438;5.470;2023-10-13T08:24:47;22.40;99.90
13721;DHT22;6932;51.438;5.470;2023-10-13T08:27:15;22.30;99.90
13721;DHT22;6932;51.438;5.470;2023-10-13T08:30:01;22.20;99.90
13721;DHT22;6932;51.438;5.470;2023-10-13T08:32:28;22.10;99.90
13721;DHT22;6932;51.438;5.470;2023-10-13T08:34:56;22.10;99.90
13721;DHT22;6932;51.438;5.470;2023-10-13T08:37:22;22.10;99.90
13721;DHT22;6932;51.438;5.470;2023-10-13T08:39:50;22.00;99.90
13721;DHT22;6932;51.438;5.470;2023-10-13T08:42:34;22.10;99.90
13721;DHT22;6932;51.438;5.470;2023-10-13T08:45:16;22.20;99.90
13721;DHT22;6932;51.438;5.470;2023-10-13T08:47:55;22.40;99.90
13721;DHT22;6932;51.438;5.470;2023-10-13T08:50:48;22.50;99.90
13721;DHT22;6932;51.438;5.470;2023-10-13T08:53:20;22.60;99.90
13721;DHT22;6932;51.438;5.470;2023-10-13T08:56:09;22.70;99.90
13721;DHT22;6932;51.438;5.470;2023-10-13T08:58:54;22.80;99.90
13721;DHT22;6932;51.438;5.470;2023-10-13T09:01:26;22.80;99.90
13721;DHT22;6932;51.438;5.470;2023-10-13T09:04:14;22.80;99.90
13721;DHT22;6932;51.438;5.470;2023-10-13T09:07:05;22.90;99.90
13721;DHT22;6932;51.438;5.470;2023-10-13T10:28:11;24.00;99.90
13721;DHT22;6932;51.438;5.470;2023-10-13T10:30:42;24.10;99.90
13721;DHT22;6932;51.438;5.470;2023-10-13T10:33:10;24.10;99.90
13721;DHT22;6932;51.438;5.470;2023-10-13T10:35:59;24.10;99.90
13721;DHT22;6932;51.438;5.470;2023-10-13T10:38:25;24.20;99.90
13721;DHT22;6932;51.438;5.470;2023-10-13T10:41:04;24.20;99.90
13721;DHT22;6932;51.438;5.470;2023-10-13T10:46:17;24.30;99.90
13721;DHT22;6932;51.438;5.470;2023-10-13T10:48:45;24.30;99.90
13721;DHT22;6932;51.438;5.470;2023-10-13T10:51:12;24.30;99.90
13721;DHT22;6932;51.438;5.470;2023-10-13T10:53:51;24.30;99.90
13721;DHT22;6932;51.438;5.470;2023-10-13T10:56:22;24.40;99.90
13721;DHT22;6932;51.438;5.470;2023-10-13T10:58:56;24.40;99.90
13721;DHT22;6932;51.438;5.470;2023-10-13T11:01:27;24.40;99.90
13721;DHT22;6932;51.438;5.470;2023-10-13T11:04:05;24.40;99.90
13721;DHT22;6932;51.438;5.470;2023-10-13T11:06:46;24.40;99.90
13721;DHT22;6932;51.438;5.470;2023-10-13T11:09:13;24.50;99.90
13721;DHT22;6932;51.438;5.470;2023-10-13T11:12:17;24.50;99.90
13721;DHT22;6932;51.438;5.470;2023-10-13T11:15:01;24.50;99.90
13721;DHT22;6932;51.438;5.470;2023-10-13T11:17:38;24.60;99.90
13721;DHT22;6932;51.438;5.470;2023-10-13T11:20:24;24.60;99.90
13721;DHT22;6932;51.438;5.470;2023-10-13T11:22:59;24.60;99.90
13721;DHT22;6932;51.438;5.470;2023-10-13T11:25:32;24.60;99.90
13721;DHT22;6932;51.438;5.470;2023-10-13T11:28:14;24.60;99.90
13721;DHT22;6932;51.438;5.470;2023-10-13T11:30:56;24.70;99.90
13721;DHT22;6932;51.438;5.470;2023-10-13T11:33:27;24.70;99.90
13721;DHT22;6932;51.438;5.470;2023-10-13T11:35:54;24.70;99.90
13721;DHT22;6932;51.438;5.470;2023-10-13T11:38:26;24.80;99.90
13721;DHT22;6932;51.438;5.470;2023-10-13T11:41:16;24.90;99.90
13721;DHT22;6932;51.438;5.470;2023-10-13T11:43:50;24.90;99.90
13721;DHT22;6932;51.438;5.470;2023-10-13T11:46:22;25.00;99.90
13721;DHT22;6932;51.438;5.470;2023-10-13T11:49:04;25.00;99.90
13721;DHT22;6932;51.438;5.470;2023-10-13T11:51:46;25.00;99.90
13721;DHT22;6932;51.438;5.470;2023-10-13T11:54:16;25.00;99.90
13721;DHT22;6932;51.438;5.470;2023-10-13T11:56:49;25.10;99.90
13721;DHT22;6932;51.438;5.470;2023-10-13T11:59:15;25.10;99.90
13721;DHT22;6932;51.438;5.470;2023-10-13T12:01:49;25.10;99.90
13721;DHT22;6932;51.438;5.470;2023-10-13T12:04:35;25.20;99.90
13721;DHT22;6932;51.438;5.470;2023-10-13T12:07:19;25.20;99.90
13721;DHT22;6932;51.438;5.470;2023-10-13T12:09:48;25.30;99.90
13721;DHT22;6932;51.438;5.470;2023-10-13T12:12:29;25.30;99.90
13721;DHT22;6932;51.438;5.470;2023-10-13T12:15:06;25.20;99.90
13721;DHT22;6932;51.438;5.470;2023-10-13T12:17:35;25.20;99.90
13721;DHT22;6932;51.438;5.470;2023-10-13T12:20:06;25.20;99.90
13721;DHT22;6932;51.438;5.470;2023-10-13T12:22:38;25.10;99.90
13721;DHT22;6932;51.438;5.470;2023-10-13T12:25:06;25.20;99.90
13721;DHT22;6932;51.438;5.470;2023-10-13T12:27:50;25.30;99.90
13721;DHT22;6932;51.438;5.470;2023-10-13T12:30:38;25.30;99.90
13721;DHT22;6932;51.438;5.470;2023-10-13T12:33:33;25.40;99.90
13721;DHT22;6932;51.438;5.470;2023-10-13T12:36:03;25.60;99.90
13721;DHT22;6932;51.438;5.470;2023-10-13T12:38:38;25.60;99.90
13721;DHT22;6932;51.438;5.470;2023-10-13T12:41:17;25.70;99.90
13721;DHT22;6932;51.438;5.470;2023-10-13T12:44:06;25.70;99.90
13721;DHT22;6932;51.438;5.470;2023-10-13T12:46:51;25.80;99.90
13721;DHT22;6932;51.438;5.470;2023-10-13T12:49:37;25.80;99.90
13721;DHT22;6932;51.438;5.470;2023-10-13T12:52:11;25.80;99.90
13721;DHT22;6932;51.438;5.470;2023-10-13T12:54:42;25.80;99.90
13721;DHT22;6932;51.438;5.470;2023-10-13T12:57:14;25.80;99.90
13721;DHT22;6932;51.438;5.470;2023-10-13T12:59:41;25.80;99.90
13721;DHT22;6932;51.438;5.470;2023-10-13T13:02:08;25.80;99.90
13721;DHT22;6932;51.438;5.470;2023-10-13T13:04:43;25.80;99.90
13721;DHT22;6932;51.438;5.470;2023-10-13T13:07:16;25.80;99.90
13721;DHT22;6932;51.438;5.470;2023-10-13T13:09:43;25.80;99.90
13721;DHT22;6932;51.438;5.470;2023-10-13T13:12:09;25.80;99.90
13721;DHT22;6932;51.438;5.470;2023-10-13T13:14:38;25.80;99.90
13721;DHT22;6932;51.438;5.470;2023-10-13T13:17:06;25.70;99.90
13721;DHT22;6932;51.438;5.470;2023-10-13T13:19:37;25.80;99.90
13721;DHT22;6932;51.438;5.470;2023-10-13T13:22:07;25.80;99.90
13721;DHT22;6932;51.438;5.470;2023-10-13T13:24:43;25.80;99.90
13721;DHT22;6932;51.438;5.470;2023-10-13T13:27:14;25.80;99.90
13721;DHT22;6932;51.438;5.470;2023-10-13T13:29:43;25.80;99.90
13721;DHT22;6932;51.438;5.470;2023-10-13T13:32:10;25.90;99.90
13721;DHT22;6932;51.438;5.470;2023-10-13T13:34:49;25.90;99.90
13721;DHT22;6932;51.438;5.470;2023-10-13T13:37:39;25.90;99.90
13721;DHT22;6932;51.438;5.470;2023-10-13T13:40:08;25.90;99.90
13721;DHT22;6932;51.438;5.470;2023-10-13T13:42:44;25.90;99.90
13721;DHT22;6932;51.438;5.470;2023-10-13T13:45:17;25.90;99.90
13721;DHT22;6932;51.438;5.470;2023-10-13T13:47:50;25.90;99.90
13721;DHT22;6932;51.438;5.470;2023-10-13T13:50:23;25.90;99.90
13721;DHT22;6932;51.438;5.470;2023-10-13T13:52:54;25.80;99.90
13721;DHT22;6932;51.438;5.470;2023-10-13T13:55:26;25.80;99.90
13721;DHT22;6932;51.438;5.470;2023-10-13T13:57:57;25.80;99.90
13721;DHT22;6932;51.438;5.470;2023-10-13T14:00:23;25.80;99.90
13721;DHT22;6932;51.438;5.470;2023-10-13T14:03:05;25.80;99.90
13721;DHT22;6932;51.438;5.470;2023-10-13T14:05:43;25.70;99.90
13721;DHT22;6932;51.438;5.470;2023-10-13T14:08:09;25.70;99.90
13721;DHT22;6932;51.438;5.470;2023-10-13T14:10:40;25.70;99.90
13721;DHT22;6932;51.438;5.470;2023-10-13T14:13:24;25.70;99.90
13721;DHT22;6932;51.438;5.470;2023-10-13T14:16:08;25.70;99.90
13721;DHT22;6932;51.438;5.470;2023-10-13T14:18:45;25.70;99.90
13721;DHT22;6932;51.438;5.470;2023-10-13T14:21:15;25.70;99.90
13721;DHT22;6932;51.438;5.470;2023-10-13T14:23:49;25.70;99.90
13721;DHT22;6932;51.438;5.470;2023-10-13T14:26:17;25.70;99.90
13721;DHT22;6932;51.438;5.470;2023-10-13T14:28:49;25.70;99.90
13721;DHT22;6932;51.438;5.470;2023-10-13T14:31:31;25.70;99.90
13721;DHT22;6932;51.438;5.470;2023-10-13T14:33:58;25.70;99.90
13721;DHT22;6932;51.438;5.470;2023-10-13T14:36:24;25.70;99.90
13721;DHT22;6932;51.438;5.470;2023-10-13T14:38:54;25.70;99.90
13721;DHT22;6932;51.438;5.470;2023-10-13T14:41:21;25.70;99.90
13721;DHT22;6932;51.438;5.470;2023-10-13T14:43:47;25.70;99.90
13721;DHT22;6932;51.438;5.470;2023-10-13T14:46:20;25.70;99.90
13721;DHT22;6932;51.438;5.470;2023-10-13T14:48:52;25.70;99.90
13721;DHT22;6932;51.438;5.470;2023-10-13T14:51:18;25.70;99.90
13721;DHT22;6932;51.438;5.470;2023-10-13T14:53:45;25.70;99.90
13721;DHT22;6932;51.438;5.470;2023-10-13T14:56:12;25.60;99.90
13721;DHT22;6932;51.438;5.470;2023-10-13T14:58:43;25.60;99.90
13721;DHT22;6932;51.438;5.470;2023-10-13T15:01:17;25.60;99.90
13721;DHT22;6932;51.438;5.470;2023-10-13T15:03:48;25.60;99.90
13721;DHT22;6932;51.438;5.470;2023-10-13T15:06:19;25.60;99.90
13721;DHT22;6932;51.438;5.470;2023-10-13T15:08:51;25.60;99.90
13721;DHT22;6932;51.438;5.470;2023-10-13T15:11:20;25.50;99.90
13721;DHT22;6932;51.438;5.470;2023-10-13T15:13:53;25.50;99.90
13721;DHT22;6932;51.438;5.470;2023-10-13T15:16:21;25.50;99.90
13721;DHT22;6932;51.438;5.470;2023-10-13T15:18:52;25.40;99.90
13721;DHT22;6932;51.438;5.470;2023-10-13T15:23:49;25.40;99.90
13721;DHT22;6932;51.438;5.470;2023-10-13T15:26:20;25.40;99.90
13721;DHT22;6932;51.438;5.470;2023-10-13T15:28:49;25.30;99.90
13721;DHT22;6932;51.438;5.470;2023-10-13T15:31:19;25.30;99.90
13721;DHT22;6932;51.438;5.470;2023-10-13T15:34:05;25.20;99.90
13721;DHT22;6932;51.438;5.470;2023-10-13T15:36:43;25.20;99.90
13721;DHT22;6932;51.438;5.470;2023-10-13T15:39:10;25.10;99.90
13721;DHT22;6932;51.438;5.470;2023-10-13T15:41:37;25.10;99.90
13721;DHT22;6932;51.438;5.470;2023-10-13T15:44:04;25.00;99.90
13721;DHT22;6932;51.438;5.470;2023-10-13T15:46:35;25.00;99.90
13721;DHT22;6932;51.438;5.470;2023-10-13T15:49:01;24.90;99.90
13721;DHT22;6932;51.438;5.470;2023-10-13T15:51:32;24.90;99.90
13721;DHT22;6932;51.438;5.470;2023-10-13T15:53:59;24.90;99.90
13721;DHT22;6932;51.438;5.470;2023-10-13T15:56:25;24.80;99.90
13721;DHT22;6932;51.438;5.470;2023-10-13T15:58:51;24.80;99.90
13721;DHT22;6932;51.438;5.470;2023-10-13T16:01:17;24.70;99.90
13721;DHT22;6932;51.438;5.470;2023-10-13T16:03:45;24.70;99.90
13721;DHT22;6932;51.438;5.470;2023-10-13T16:06:17;24.70;99.90
13721;DHT22;6932;51.438;5.470;2023-10-13T16:08:44;24.70;99.90
13721;DHT22;6932;51.438;5.470;2023-10-13T16:11:12;24.70;99.90
13721;DHT22;6932;51.438;5.470;2023-10-13T16:13:45;24.60;99.90
13721;DHT22;6932;51.438;5.470;2023-10-13T16:16:19;24.60;99.90
13721;DHT22;6932;51.438;5.470;2023-10-13T16:18:51;24.50;99.90
13721;DHT22;6932;51.438;5.470;2023-10-13T16:21:18;24.50;99.90
13721;DHT22;6932;51.438;5.470;2023-10-13T16:23:48;24.40;99.90
13721;DHT22;6932;51.438;5.470;2023-10-13T16:26:14;24.40;99.90
13721;DHT22;6932;51.438;5.470;2023-10-13T16:28:40;24.30;99.90
13721;DHT22;6932;51.438;5.470;2023-10-13T16:31:07;24.30;99.90
13721;DHT22;6932;51.438;5.470;2023-10-13T16:33:37;24.30;99.90
13721;DHT22;6932;51.438;5.470;2023-10-13T16:36:06;24.20;99.90
13721;DHT22;6932;51.438;5.470;2023-10-13T16:38:37;24.20;99.90
13721;DHT22;6932;51.438;5.470;2023-10-13T16:41:04;24.10;99.90
13721;DHT22;6932;51.438;5.470;2023-10-13T16:43:35;24.10;99.90
13721;DHT22;6932;51.438;5.470;2023-10-13T16:46:12;24.10;99.90
13721;DHT22;6932;51.438;5.470;2023-10-13T16:48:38;24.00;99.90
13721;DHT22;6932;51.438;5.470;2023-10-13T16:51:04;24.00;99.90
13721;DHT22;6932;51.438;5.470;2023-10-13T16:53:31;24.00;99.90
13721;DHT22;6932;51.438;5.470;2023-10-13T16:56:00;24.00;99.90
13721;DHT22;6932;51.438;5.470;2023-10-13T16:58:27;24.00;99.90
13721;DHT22;6932;51.438;5.470;2023-10-13T17:00:56;23.90;99.90
13721;DHT22;6932;51.438;5.470;2023-10-13T17:03:21;23.90;99.90
13721;DHT22;6932;51.438;5.470;2023-10-13T17:05:55;23.80;99.90
13721;DHT22;6932;51.438;5.470;2023-10-13T17:08:23;23.70;99.90
13721;DHT22;6932;51.438;5.470;2023-10-13T17:10:49;23.60;99.90
13721;DHT22;6932;51.438;5.470;2023-10-13T17:13:16;23.50;99.90
13721;DHT22;6932;51.438;5.470;2023-10-13T17:15:42;23.30;99.90
13721;DHT22;6932;51.438;5.470;2023-10-13T17:18:08;23.20;99.90
13721;DHT22;6932;51.438;5.470;2023-10-13T17:20:40;23.10;99.90
13721;DHT22;6932;51.438;5.470;2023-10-13T17:23:07;23.00;99.90
13721;DHT22;6932;51.438;5.470;2023-10-13T17:25:34;22.90;99.90
13721;DHT22;6932;51.438;5.470;2023-10-13T17:28:01;22.80;99.90
13721;DHT22;6932;51.438;5.470;2023-10-13T17:30:39;22.80;99.90
13721;DHT22;6932;51.438;5.470;2023-10-13T17:33:05;22.70;99.90
13721;DHT22;6932;51.438;5.470;2023-10-13T17:35:40;22.60;99.90
13721;DHT22;6932;51.438;5.470;2023-10-13T17:38:06;22.50;99.90
13721;DHT22;6932;51.438;5.470;2023-10-13T17:40:35;22.50;99.90
13721;DHT22;6932;51.438;5.470;2023-10-13T17:43:02;22.50;99.90
13721;DHT22;6932;51.438;5.470;2023-10-13T17:45:28;22.40;99.90
13721;DHT22;6932;51.438;5.470;2023-10-13T17:47:53;22.40;99.90
13721;DHT22;6932;51.438;5.470;2023-10-13T17:50:21;22.40;99.90
13721;DHT22;6932;51.438;5.470;2023-10-13T17:52:47;22.30;99.90
13721;DHT22;6932;51.438;5.470;2023-10-13T17:55:14;22.40;99.90
13721;DHT22;6932;51.438;5.470;2023-10-13T17:57:42;22.30;99.90